Time;durP1;ratioP1;P1;durP2;ratioP2;P2;SDS_P1;SDS_P2;PMS_P1;PMS_P2;Temp;Humidity;BMP_temperature;BMP_pressure;BME280_temperature;BME280_humidity;BME280_pressure;Samples;Min_cycle;Max_cycle;Signal;HPM_P1;HPM_P2
2022/01/02 00:02:21;;;;;;;7.47;3.92;;;;;;;;;;5022311;28;20042;-83
2022/01/02 00:04:48;;;;;;;8.20;4.38;;;;;;;;;;5003209;28;20045;-83
2022/01/02 00:07:15;;;;;;;7.97;4.10;;;;;;;;;;5007236;28;20073;-83
2022/01/02 00:09:43;;;;;;;12.77;4.25;;;;;;;;;;5006994;28;20046;-82
2022/01/02 00:12:14;;;;;;;8.63;4.10;;;;;;;;;;5009622;28;20045;-85
2022/01/02 00:14:46;;;;;;;7.95;3.97;;;;;;;;;;5025637;28;20076;-85
2022/01/02 00:17:13;;;;;;;8.10;3.85;;;;;;;;;;5008580;28;20038;-84
2022/01/02 00:19:41;;;;;;;8.07;4.05;;;;;;;;;;5010214;28;20064;-82
2022/01/02 00:22:16;;;;;;;7.68;3.95;;;;;;;;;;5026531;28;20042;-83
2022/01/02 00:24:42;;;;;;;8.25;3.83;;;;;;;;;;5024709;28;20117;-83
2022/01/02 00:27:09;;;;;;;7.20;3.92;;;;;;;;;;5006518;28;20045;-83
2022/01/02 00:29:38;;;;;;;8.30;3.80;;;;;;;;;;5027364;28;20061;-82
2022/01/02 00:32:06;;;;;;;8.38;4.03;;;;;;;;;;5012560;28;20042;-81
2022/01/02 00:34:32;;;;;;;7.85;3.97;;;;;;;;;;5011108;28;20163;-81
2022/01/02 00:36:58;;;;;;;8.75;4.40;;;;;;;;;;5009433;28;20060;-80
2022/01/02 00:39:24;;;;;;;7.05;4.13;;;;;;;;;;5009590;28;20061;-83
2022/01/02 00:41:54;;;;;;;7.57;4.15;;;;;;;;;;5011605;28;20045;-83
2022/01/02 00:44:40;;;;;;;9.27;4.22;;;;;;;;;;5032226;28;20473;-83
2022/01/02 00:47:07;;;;;;;8.63;3.92;;;;;;;;;;5025496;28;20042;-82
2022/01/02 00:49:34;;;;;;;8.00;3.88;;;;;;;;;;5036629;28;20469;-82
2022/01/02 00:52:04;;;;;;;7.95;4.35;;;;;;;;;;5027090;28;20113;-82
2022/01/02 00:54:30;;;;;;;7.40;3.83;;;;;;;;;;5041704;28;20042;-83
2022/01/02 00:57:06;;;;;;;9.32;3.97;;;;;;;;;;5041788;28;20033;-84
2022/01/02 00:59:38;;;;;;;9.05;4.20;;;;;;;;;;5025964;28;20056;-85
2022/01/02 01:02:04;;;;;;;8.88;4.22;;;;;;;;;;5026650;28;20037;-83
2022/01/02 01:04:34;;;;;;;8.63;4.55;;;;;;;;;;5026036;28;20044;-84
2022/01/02 01:07:02;;;;;;;9.13;4.32;;;;;;;;;;5028902;28;20060;-83
2022/01/02 01:09:29;;;;;;;10.45;4.47;;;;;;;;;;5043589;28;20042;-82
2022/01/02 01:11:56;;;;;;;8.43;4.47;;;;;;;;;;5029106;28;20092;-83
2022/01/02 01:14:23;;;;;;;8.52;3.92;;;;;;;;;;5046079;28;20045;-83
2022/01/02 01:16:49;;;;;;;7.32;4.40;;;;;;;;;;5044626;28;20033;-83
2022/01/02 01:19:15;;;;;;;9.82;4.88;;;;;;;;;;5026726;28;20063;-82
2022/01/02 01:21:41;;;;;;;8.57;3.85;;;;;;;;;;5024916;28;20241;-83
2022/01/02 01:24:07;;;;;;;9.65;4.65;;;;;;;;;;5025269;28;20128;-83
2022/01/02 01:26:33;;;;;;;9.30;4.53;;;;;;;;;;5024271;28;20065;-83
2022/01/02 01:28:59;;;;;;;10.07;4.45;;;;;;;;;;5040945;28;20049;-81
2022/01/02 01:31:25;;;;;;;9.30;4.38;;;;;;;;;;5041249;28;20071;-82
2022/01/02 01:33:51;;;;;;;7.25;4.18;;;;;;;;;;5026602;28;20103;-83
2022/01/02 01:36:17;;;;;;;6.97;4.43;;;;;;;;;;5027125;28;20038;-83
2022/01/02 01:38:43;;;;;;;7.88;4.40;;;;;;;;;;5042491;28;20041;-83
2022/01/02 01:41:09;;;;;;;7.80;4.60;;;;;;;;;;5042724;28;20038;-83
2022/01/02 01:43:40;;;;;;;8.30;4.40;;;;;;;;;;5043445;28;20071;-82
2022/01/02 01:46:06;;;;;;;10.13;4.50;;;;;;;;;;5043171;28;20100;-83
2022/01/02 01:48:32;;;;;;;8.88;4.60;;;;;;;;;;5026660;28;20144;-81
2022/01/02 01:50:59;;;;;;;11.38;4.90;;;;;;;;;;5043086;28;20049;-82
2022/01/02 01:53:26;;;;;;;9.98;4.80;;;;;;;;;;5025819;28;20377;-83
2022/01/02 01:55:55;;;;;;;13.60;4.70;;;;;;;;;;5042499;28;20048;-83
2022/01/02 01:58:21;;;;;;;8.73;4.55;;;;;;;;;;5043010;28;20045;-84
2022/01/02 02:00:47;;;;;;;7.85;4.28;;;;;;;;;;5027571;28;20048;-83
2022/01/02 02:03:13;;;;;;;11.05;5.13;;;;;;;;;;5028089;28;20049;-81
2022/01/02 02:05:39;;;;;;;10.65;3.95;;;;;;;;;;5028240;28;20041;-83
2022/01/02 02:08:06;;;;;;;7.65;4.43;;;;;;;;;;5028528;28;20364;-84
2022/01/02 02:10:39;;;;;;;11.88;4.90;;;;;;;;;;5043689;28;20093;-80
2022/01/02 02:13:05;;;;;;;7.97;4.27;;;;;;;;;;5044220;28;20037;-84
2022/01/02 02:15:31;;;;;;;8.50;4.32;;;;;;;;;;5042427;28;20072;-82
2022/01/02 02:17:57;;;;;;;11.27;4.30;;;;;;;;;;5024581;28;20034;-83
2022/01/02 02:20:24;;;;;;;8.43;4.20;;;;;;;;;;5025830;28;20095;-83
2022/01/02 02:22:52;;;;;;;9.63;3.95;;;;;;;;;;5027489;28;20052;-82
2022/01/02 02:25:19;;;;;;;11.20;3.95;;;;;;;;;;5026385;28;20084;-82
2022/01/02 02:27:49;;;;;;;8.15;3.92;;;;;;;;;;5042575;28;20191;-81
2022/01/02 02:30:15;;;;;;;10.63;4.07;;;;;;;;;;5026343;28;20064;-83
2022/01/02 02:32:41;;;;;;;9.25;3.72;;;;;;;;;;5042301;28;20377;-82
2022/01/02 02:35:07;;;;;;;8.93;4.10;;;;;;;;;;5026366;28;20045;-83
2022/01/02 02:37:33;;;;;;;10.60;4.30;;;;;;;;;;5049661;28;20080;-83
2022/01/02 02:40:00;;;;;;;11.00;4.00;;;;;;;;;;5042746;28;20041;-83
2022/01/02 02:42:37;;;;;;;9.55;3.88;;;;;;;;;;5043478;28;20044;-83
2022/01/02 02:48:57;;;;;;;9.52;3.67;;;;;;;;;;5043342;28;20037;-81
2022/01/02 02:50:48;;;;;;;9.32;3.95;;;;;;;;;;5030541;28;20113;-82
2022/01/02 02:53:15;;;;;;;10.30;3.50;;;;;;;;;;5046501;28;20097;-81
2022/01/02 02:55:47;;;;;;;12.77;4.35;;;;;;;;;;5028169;28;20143;-81
2022/01/02 03:01:00;;;;;;;9.20;3.42;;;;;;;;;;5047842;28;20047;-81
2022/01/02 03:03:26;;;;;;;11.20;3.90;;;;;;;;;;5064399;28;20507;-81
2022/01/02 03:05:52;;;;;;;9.88;3.58;;;;;;;;;;5030023;28;20052;-82
2022/01/02 03:08:18;;;;;;;10.52;3.90;;;;;;;;;;5030964;28;20041;-82
2022/01/02 03:10:44;;;;;;;12.35;3.90;;;;;;;;;;5049687;28;20036;-82
2022/01/02 03:13:10;;;;;;;10.80;3.80;;;;;;;;;;5065342;28;20041;-82
2022/01/02 03:15:36;;;;;;;10.05;4.03;;;;;;;;;;5064215;28;20040;-81
2022/01/02 03:18:02;;;;;;;11.75;4.50;;;;;;;;;;5045217;28;20056;-82
2022/01/02 03:20:28;;;;;;;11.13;3.92;;;;;;;;;;5029489;28;20040;-80
2022/01/02 03:22:54;;;;;;;10.70;3.83;;;;;;;;;;5027726;28;20334;-82
2022/01/02 03:25:20;;;;;;;9.60;3.50;;;;;;;;;;5027476;28;20049;-82
2022/01/02 03:27:46;;;;;;;8.02;3.95;;;;;;;;;;5045600;28;20081;-80
2022/01/02 03:30:13;;;;;;;8.25;4.03;;;;;;;;;;5045926;28;20044;-83
2022/01/02 03:32:39;;;;;;;10.13;3.92;;;;;;;;;;5045487;28;20044;-83
2022/01/02 03:35:05;;;;;;;10.25;4.15;;;;;;;;;;5045481;28;20048;-84
2022/01/02 03:37:33;;;;;;;9.52;3.95;;;;;;;;;;5048092;28;20033;-83
2022/01/02 03:39:59;;;;;;;9.77;3.92;;;;;;;;;;5049269;28;20029;-84
2022/01/02 03:42:25;;;;;;;14.80;4.05;;;;;;;;;;5033678;28;20064;-83
2022/01/02 03:44:51;;;;;;;8.23;3.83;;;;;;;;;;5033179;28;20045;-83
2022/01/02 03:47:17;;;;;;;11.30;3.90;;;;;;;;;;5030173;28;20044;-84
2022/01/02 03:49:43;;;;;;;11.93;3.97;;;;;;;;;;5029981;28;20109;-84
2022/01/02 03:52:09;;;;;;;13.32;4.15;;;;;;;;;;5034683;28;20049;-82
2022/01/02 03:54:35;;;;;;;13.05;4.00;;;;;;;;;;5050752;28;20052;-82
2022/01/02 03:57:01;;;;;;;11.48;4.07;;;;;;;;;;5030760;28;20048;-81
2022/01/02 03:59:27;;;;;;;7.63;3.85;;;;;;;;;;5050369;28;20037;-82
2022/01/02 04:01:53;;;;;;;12.35;4.05;;;;;;;;;;5048779;28;20037;-82
2022/01/02 04:04:19;;;;;;;7.55;3.75;;;;;;;;;;5046998;28;20102;-82
2022/01/02 04:06:45;;;;;;;8.98;4.45;;;;;;;;;;5031084;28;20106;-82
2022/01/02 04:09:11;;;;;;;9.88;4.28;;;;;;;;;;5047088;28;20457;-83
2022/01/02 04:11:37;;;;;;;9.38;4.82;;;;;;;;;;5044908;28;20048;-84
2022/01/02 04:14:03;;;;;;;12.77;4.63;;;;;;;;;;5028771;28;20048;-82
2022/01/02 04:16:29;;;;;;;11.70;4.65;;;;;;;;;;5026965;28;20051;-83
2022/01/02 04:18:55;;;;;;;11.23;4.65;;;;;;;;;;5028165;28;20045;-83
2022/01/02 04:21:21;;;;;;;9.98;4.78;;;;;;;;;;5044109;28;20055;-83
2022/01/02 04:23:47;;;;;;;13.43;4.78;;;;;;;;;;5043939;28;20041;-84
2022/01/02 04:26:13;;;;;;;9.55;4.38;;;;;;;;;;5045083;28;20044;-82
2022/01/02 04:28:39;;;;;;;10.07;4.70;;;;;;;;;;5045687;28;20040;-84
2022/01/02 04:31:05;;;;;;;11.57;4.43;;;;;;;;;;5029043;28;20095;-81
2022/01/02 04:33:31;;;;;;;8.68;4.55;;;;;;;;;;5029752;28;20040;-84
2022/01/02 04:35:57;;;;;;;14.30;4.68;;;;;;;;;;5030697;28;20051;-83
2022/01/02 04:38:24;;;;;;;16.88;4.82;;;;;;;;;;5029969;28;20041;-82
2022/01/02 04:40:50;;;;;;;11.20;5.03;;;;;;;;;;5030769;28;20037;-83
2022/01/02 04:43:16;;;;;;;13.57;4.80;;;;;;;;;;5030848;28;20036;-84
2022/01/02 04:45:42;;;;;;;12.38;4.60;;;;;;;;;;5043801;28;20044;-83
2022/01/02 04:48:08;;;;;;;15.73;5.07;;;;;;;;;;5043910;28;20056;-83
2022/01/02 04:50:34;;;;;;;13.02;4.70;;;;;;;;;;5061545;28;20037;-84
2022/01/02 04:53:00;;;;;;;9.02;4.18;;;;;;;;;;5044749;28;20083;-84
2022/01/02 04:55:26;;;;;;;11.02;4.68;;;;;;;;;;5047731;28;20048;-83
2022/01/02 04:57:52;;;;;;;9.25;4.68;;;;;;;;;;5031273;28;20472;-82
2022/01/02 05:00:18;;;;;;;14.40;4.80;;;;;;;;;;5029014;28;20033;-83
2022/01/02 05:02:44;;;;;;;10.73;4.70;;;;;;;;;;5031830;28;20044;-82
2022/01/02 05:05:10;;;;;;;16.55;4.88;;;;;;;;;;5053100;28;20041;-83
2022/01/02 05:07:36;;;;;;;15.02;5.00;;;;;;;;;;5065423;28;20041;-85
2022/01/02 05:10:02;;;;;;;14.52;5.57;;;;;;;;;;5029915;28;20040;-83
2022/01/02 05:12:29;;;;;;;9.15;4.55;;;;;;;;;;5030585;28;20123;-84
2022/01/02 05:14:57;;;;;;;14.50;4.90;;;;;;;;;;5030111;28;20147;-85
2022/01/02 05:17:23;;;;;;;12.15;5.07;;;;;;;;;;5046426;28;20037;-84
2022/01/02 05:19:49;;;;;;;11.95;5.18;;;;;;;;;;5046969;28;20360;-83
2022/01/02 05:22:15;;;;;;;14.45;4.60;;;;;;;;;;5064716;28;20041;-85
2022/01/02 05:24:41;;;;;;;14.80;5.35;;;;;;;;;;5031671;28;20033;-85
2022/01/02 05:27:07;;;;;;;13.43;5.00;;;;;;;;;;5033907;28;20483;-82
2022/01/02 05:29:33;;;;;;;17.20;5.70;;;;;;;;;;5051490;28;20052;-83
2022/01/02 05:31:59;;;;;;;18.55;4.93;;;;;;;;;;5051303;28;20032;-83
2022/01/02 05:34:25;;;;;;;13.77;5.13;;;;;;;;;;5034466;28;20067;-83
2022/01/02 05:36:51;;;;;;;12.48;5.00;;;;;;;;;;5033721;28;20441;-82
2022/01/02 05:39:18;;;;;;;13.93;5.00;;;;;;;;;;5032320;28;20039;-83
2022/01/02 05:41:44;;;;;;;14.00;5.32;;;;;;;;;;5032221;28;20101;-81
2022/01/02 05:44:10;;;;;;;12.85;4.88;;;;;;;;;;5049300;28;20045;-83
2022/01/02 05:46:36;;;;;;;14.65;5.22;;;;;;;;;;5048388;28;20041;-82
2022/01/02 05:49:02;;;;;;;13.38;4.82;;;;;;;;;;5032021;28;20057;-84
2022/01/02 05:51:28;;;;;;;16.98;5.13;;;;;;;;;;5038069;28;20045;-81
2022/01/02 05:53:54;;;;;;;13.98;5.15;;;;;;;;;;5046146;28;20104;-81
2022/01/02 05:56:21;;;;;;;10.65;5.13;;;;;;;;;;5053969;28;20071;-83
2022/01/02 05:58:47;;;;;;;11.00;5.07;;;;;;;;;;5048687;28;20051;-81
2022/01/02 06:01:13;;;;;;;11.15;4.88;;;;;;;;;;5032461;28;20041;-85
2022/01/02 06:03:39;;;;;;;15.27;5.18;;;;;;;;;;5030317;28;20112;-82
2022/01/02 06:06:05;;;;;;;10.65;4.82;;;;;;;;;;5031381;28;20045;-84
2022/01/02 06:08:31;;;;;;;14.90;5.40;;;;;;;;;;5033357;28;20061;-84
2022/01/02 06:10:57;;;;;;;12.15;5.05;;;;;;;;;;5050843;28;20041;-84
2022/01/02 06:13:24;;;;;;;18.95;5.70;;;;;;;;;;5051259;28;20116;-82
2022/01/02 06:15:50;;;;;;;12.90;5.10;;;;;;;;;;5033287;28;20445;-81
2022/01/02 06:18:16;;;;;;;11.55;5.30;;;;;;;;;;5047808;28;20037;-82
2022/01/02 06:20:42;;;;;;;15.60;5.88;;;;;;;;;;5029077;28;20041;-81
2022/01/02 06:23:08;;;;;;;13.93;5.82;;;;;;;;;;5046188;28;20346;-82
2022/01/02 06:25:34;;;;;;;14.05;5.40;;;;;;;;;;5050965;28;20102;-81
2022/01/02 06:28:00;;;;;;;14.20;5.88;;;;;;;;;;5050380;28;20116;-82
2022/01/02 06:30:26;;;;;;;13.27;5.65;;;;;;;;;;5030040;28;20380;-83
2022/01/02 06:32:55;;;;;;;15.20;5.50;;;;;;;;;;5045567;28;20121;-82
2022/01/02 06:35:24;;;;;;;15.02;6.10;;;;;;;;;;5033922;28;20041;-82
2022/01/02 06:37:50;;;;;;;17.33;6.00;;;;;;;;;;5037796;28;20036;-82
2022/01/02 06:40:16;;;;;;;9.90;5.32;;;;;;;;;;5061087;28;20021;-81
2022/01/02 06:42:42;;;;;;;15.07;5.40;;;;;;;;;;5055413;28;20036;-82
2022/01/02 06:45:09;;;;;;;10.50;5.32;;;;;;;;;;5050885;28;20071;-80
2022/01/02 06:47:35;;;;;;;14.85;6.18;;;;;;;;;;5033173;28;20068;-81
2022/01/02 06:50:01;;;;;;;11.65;6.00;;;;;;;;;;5033315;28;20465;-82
2022/01/02 06:52:27;;;;;;;12.20;5.85;;;;;;;;;;5067511;28;20044;-81
2022/01/02 06:54:53;;;;;;;11.27;5.30;;;;;;;;;;5033349;28;20048;-82
2022/01/02 06:57:19;;;;;;;19.50;5.95;;;;;;;;;;5050396;28;20037;-80
2022/01/02 06:59:45;;;;;;;18.60;6.75;;;;;;;;;;5031007;28;20037;-82
2022/01/02 07:02:11;;;;;;;15.52;6.88;;;;;;;;;;5048044;28;20215;-81
2022/01/02 07:04:37;;;;;;;14.02;6.97;;;;;;;;;;5030416;28;20040;-81
2022/01/02 07:07:03;;;;;;;16.45;6.82;;;;;;;;;;5046813;28;20041;-82
2022/01/02 07:09:31;;;;;;;14.82;5.93;;;;;;;;;;5031860;28;20036;-82
2022/01/02 07:11:57;;;;;;;17.02;6.13;;;;;;;;;;5032022;28;20037;-82
2022/01/02 07:14:27;;;;;;;13.00;5.85;;;;;;;;;;5030638;28;20037;-82
2022/01/02 07:16:56;;;;;;;12.23;6.18;;;;;;;;;;5031585;28;20037;-82
2022/01/02 07:19:22;;;;;;;17.73;5.57;;;;;;;;;;5047315;28;20067;-81
2022/01/02 07:21:48;;;;;;;15.73;5.97;;;;;;;;;;5030297;28;20089;-79
2022/01/02 07:24:15;;;;;;;13.70;5.63;;;;;;;;;;5031124;28;20041;-82
2022/01/02 07:26:41;;;;;;;15.75;6.75;;;;;;;;;;5031279;28;20051;-82
2022/01/02 07:29:07;;;;;;;18.77;6.43;;;;;;;;;;5045259;28;20060;-81
2022/01/02 07:31:33;;;;;;;13.63;5.82;;;;;;;;;;5040215;28;20052;-82
2022/01/02 07:33:59;;;;;;;16.52;6.10;;;;;;;;;;5032704;28;20361;-83
2022/01/02 07:36:25;;;;;;;15.35;6.05;;;;;;;;;;5053753;28;20025;-80
2022/01/02 07:38:51;;;;;;;14.52;5.63;;;;;;;;;;5054714;28;20057;-82
2022/01/02 07:41:17;;;;;;;14.90;6.32;;;;;;;;;;5058435;28;20093;-82
2022/01/02 07:43:43;;;;;;;17.25;6.50;;;;;;;;;;5035813;28;20033;-80
2022/01/02 07:46:09;;;;;;;15.18;6.22;;;;;;;;;;5036214;28;20036;-82
2022/01/02 07:48:35;;;;;;;11.75;5.65;;;;;;;;;;5028718;28;20060;-81
2022/01/02 07:51:01;;;;;;;16.85;5.72;;;;;;;;;;5045295;28;20350;-82
2022/01/02 07:53:27;;;;;;;17.60;5.80;;;;;;;;;;5027928;28;20033;-80
2022/01/02 07:55:53;;;;;;;15.32;5.90;;;;;;;;;;5044006;28;20033;-81
2022/01/02 07:58:19;;;;;;;15.90;5.72;;;;;;;;;;5027735;28;20056;-80
2022/01/02 08:00:45;;;;;;;13.05;6.20;;;;;;;;;;5043791;28;20033;-81
2022/01/02 08:03:11;;;;;;;12.23;5.10;;;;;;;;;;5030180;28;20041;-80
2022/01/02 08:05:37;;;;;;;11.68;5.65;;;;;;;;;;5034430;28;20040;-82
2022/01/02 08:08:03;;;;;;;13.52;5.32;;;;;;;;;;5043879;28;20074;-82
2022/01/02 08:10:29;;;;;;;17.65;6.13;;;;;;;;;;5043918;28;20162;-81
2022/01/02 08:12:55;;;;;;;13.73;5.72;;;;;;;;;;5028512;28;20445;-82
2022/01/02 08:15:21;;;;;;;11.85;5.00;;;;;;;;;;5044776;28;20064;-83
2022/01/02 08:17:47;;;;;;;14.32;5.22;;;;;;;;;;5054602;28;20078;-82
2022/01/02 08:20:14;;;;;;;14.40;4.95;;;;;;;;;;5031620;28;20052;-80
2022/01/02 08:22:40;;;;;;;12.32;4.50;;;;;;;;;;5043806;28;20033;-81
2022/01/02 08:25:06;;;;;;;15.75;4.72;;;;;;;;;;5043160;28;20041;-80
2022/01/02 08:27:32;;;;;;;18.02;4.95;;;;;;;;;;5026827;28;20048;-80
2022/01/02 08:29:58;;;;;;;17.70;4.57;;;;;;;;;;5043485;28;20033;-82
2022/01/02 08:32:24;;;;;;;12.43;5.05;;;;;;;;;;5027700;28;20033;-81
2022/01/02 08:34:50;;;;;;;12.98;4.53;;;;;;;;;;5026367;28;20045;-81
2022/01/02 08:37:16;;;;;;;14.65;5.43;;;;;;;;;;5041980;28;20033;-83
2022/01/02 08:39:43;;;;;;;13.43;5.40;;;;;;;;;;5024949;28;20055;-82
2022/01/02 08:42:09;;;;;;;10.07;4.25;;;;;;;;;;5041479;28;20051;-83
2022/01/02 08:44:35;;;;;;;8.85;3.97;;;;;;;;;;5026122;28;20036;-81
2022/01/02 08:47:01;;;;;;;10.43;4.28;;;;;;;;;;5026365;28;20041;-83
2022/01/02 08:49:27;;;;;;;8.50;4.18;;;;;;;;;;5042225;28;20053;-81
2022/01/02 08:51:55;;;;;;;10.07;4.50;;;;;;;;;;5044720;28;20045;-81
2022/01/02 08:54:21;;;;;;;9.52;3.92;;;;;;;;;;5027610;28;20056;-80
2022/01/02 08:56:47;;;;;;;9.27;4.10;;;;;;;;;;5032510;28;20036;-83
2022/01/02 08:59:13;;;;;;;8.65;3.63;;;;;;;;;;5050070;28;20044;-81
2022/01/02 09:01:39;;;;;;;9.68;3.78;;;;;;;;;;5050722;28;20047;-83
2022/01/02 09:04:05;;;;;;;8.95;3.13;;;;;;;;;;5049982;28;20040;-84
2022/01/02 09:06:31;;;;;;;9.32;3.58;;;;;;;;;;5049285;28;20052;-82
2022/01/02 09:08:57;;;;;;;7.03;3.40;;;;;;;;;;5032520;28;20052;-81
2022/01/02 09:11:24;;;;;;;7.93;3.50;;;;;;;;;;5031638;28;20175;-81
2022/01/02 09:13:50;;;;;;;5.63;2.80;;;;;;;;;;5031219;28;20318;-80
2022/01/02 09:16:16;;;;;;;8.48;3.58;;;;;;;;;;5032703;28;20041;-82
2022/01/02 09:18:42;;;;;;;7.57;3.53;;;;;;;;;;5032227;28;20375;-80
2022/01/02 09:21:08;;;;;;;10.45;4.22;;;;;;;;;;5047836;28;20037;-80
2022/01/02 09:23:34;;;;;;;6.25;3.10;;;;;;;;;;5030360;28;20365;-82
2022/01/02 09:26:00;;;;;;;9.95;3.67;;;;;;;;;;5046673;28;20040;-81
2022/01/02 09:28:26;;;;;;;7.03;3.42;;;;;;;;;;5047406;28;20041;-81
2022/01/02 09:30:52;;;;;;;7.80;3.30;;;;;;;;;;5049875;28;20037;-81
2022/01/02 09:33:18;;;;;;;7.03;3.30;;;;;;;;;;5051295;28;20041;-80
2022/01/02 09:35:45;;;;;;;7.45;3.55;;;;;;;;;;5034164;28;20041;-81
2022/01/02 09:38:11;;;;;;;7.85;3.00;;;;;;;;;;5039570;28;20029;-80
2022/01/02 09:40:37;;;;;;;6.35;3.55;;;;;;;;;;5053243;28;20033;-82
2022/01/02 09:43:04;;;;;;;9.73;4.05;;;;;;;;;;5067671;28;20045;-83
2022/01/02 09:45:33;;;;;;;6.72;3.40;;;;;;;;;;5053860;28;20051;-81
2022/01/02 09:48:00;;;;;;;7.10;4.10;;;;;;;;;;5034094;28;20373;-83
2022/01/02 09:50:26;;;;;;;5.95;3.45;;;;;;;;;;5048008;28;20060;-83
2022/01/02 09:52:52;;;;;;;11.43;4.00;;;;;;;;;;5049804;28;20060;-81
2022/01/02 09:55:18;;;;;;;6.18;3.30;;;;;;;;;;5048297;28;20060;-80
2022/01/02 09:57:48;;;;;;;6.40;3.45;;;;;;;;;;5071417;28;20041;-82
2022/01/02 10:00:14;;;;;;;9.38;3.13;;;;;;;;;;5032060;28;20100;-80
2022/01/02 10:03:07;;;;;;;12.02;3.30;;;;;;;;;;5030271;28;20087;-81
2022/01/02 10:05:51;;;;;;;6.18;3.20;;;;;;;;;;5060969;28;20100;-81
2022/01/02 10:08:21;;;;;;;6.07;3.50;;;;;;;;;;5062692;28;20110;-80
2022/01/02 10:10:47;;;;;;;8.48;3.80;;;;;;;;;;5044565;28;20372;-80
2022/01/02 10:13:13;;;;;;;8.10;3.83;;;;;;;;;;5045878;28;20460;-79
2022/01/02 10:15:39;;;;;;;7.22;3.30;;;;;;;;;;5029873;28;20346;-80
2022/01/02 10:18:09;;;;;;;10.18;3.90;;;;;;;;;;5030482;28;20074;-79
2022/01/02 10:20:39;;;;;;;8.68;3.75;;;;;;;;;;5030612;28;20033;-80
2022/01/02 10:23:11;;;;;;;9.18;3.90;;;;;;;;;;5049702;28;20538;-79
2022/01/02 10:25:37;;;;;;;7.85;3.53;;;;;;;;;;5064783;28;20048;-79
2022/01/02 10:28:25;;;;;;;10.98;3.80;;;;;;;;;;5065537;28;20033;-79
2022/01/02 10:30:51;;;;;;;8.10;3.90;;;;;;;;;;5048477;28;20079;-80
2022/01/02 10:33:17;;;;;;;6.55;3.80;;;;;;;;;;5049792;28;20044;-79
2022/01/02 10:35:43;;;;;;;6.35;3.78;;;;;;;;;;5031527;28;20115;-81
2022/01/02 10:38:16;;;;;;;6.32;3.83;;;;;;;;;;5044421;28;20475;-81
2022/01/02 10:40:42;;;;;;;7.75;3.90;;;;;;;;;;5027708;28;20052;-81
2022/01/02 10:43:14;;;;;;;10.07;3.80;;;;;;;;;;5027641;28;20477;-81
2022/01/02 10:45:43;;;;;;;10.07;4.10;;;;;;;;;;5062326;28;20235;-79
2022/01/02 10:48:10;;;;;;;8.02;3.60;;;;;;;;;;5029182;28;20053;-80
2022/01/02 10:50:37;;;;;;;7.88;3.85;;;;;;;;;;5045793;28;20041;-81
2022/01/02 10:53:13;;;;;;;11.77;4.35;;;;;;;;;;5043230;28;20098;-81
2022/01/02 10:55:39;;;;;;;7.35;3.92;;;;;;;;;;5043682;28;20448;-80
2022/01/02 10:58:05;;;;;;;8.27;3.95;;;;;;;;;;5042669;28;20037;-81
2022/01/02 11:00:31;;;;;;;10.20;4.10;;;;;;;;;;5043467;28;20033;-82
2022/01/02 11:02:57;;;;;;;7.53;3.75;;;;;;;;;;5043688;28;20067;-79
2022/01/02 11:05:23;;;;;;;6.07;3.58;;;;;;;;;;5044277;28;20037;-82
2022/01/02 11:07:50;;;;;;;6.80;3.65;;;;;;;;;;5059914;28;20036;-81
2022/01/02 11:10:22;;;;;;;7.18;3.75;;;;;;;;;;5026000;28;20124;-82
2022/01/02 11:12:49;;;;;;;6.97;3.55;;;;;;;;;;5042710;28;20128;-82
2022/01/02 11:15:16;;;;;;;6.18;3.33;;;;;;;;;;5027604;28;20041;-81
2022/01/02 11:17:42;;;;;;;6.10;3.65;;;;;;;;;;5044498;28;20036;-82
2022/01/02 11:20:12;;;;;;;9.05;3.42;;;;;;;;;;5029670;28;20121;-79
2022/01/02 11:22:57;;;;;;;8.88;3.70;;;;;;;;;;5043557;28;20452;-82
2022/01/02 11:25:35;;;;;;;7.25;3.83;;;;;;;;;;5065254;28;20045;-79
2022/01/02 11:28:03;;;;;;;10.30;3.78;;;;;;;;;;5037525;28;20044;-78
2022/01/02 11:30:32;;;;;;;9.77;3.88;;;;;;;;;;5033050;28;20076;-82
2022/01/02 11:33:07;;;;;;;8.23;4.00;;;;;;;;;;5061749;28;20037;-80
2022/01/02 11:35:35;;;;;;;6.22;3.65;;;;;;;;;;5062367;28;20137;-78
2022/01/02 11:38:02;;;;;;;8.57;4.00;;;;;;;;;;5044044;28;20040;-81
2022/01/02 11:40:47;;;;;;;8.88;4.40;;;;;;;;;;5028298;28;20041;-80
2022/01/02 11:43:48;;;;;;;9.30;3.85;;;;;;;;;;5061256;28;20040;-80
2022/01/02 11:46:15;;;;;;;9.63;4.03;;;;;;;;;;5000442;28;20099;-80
2022/01/02 11:48:41;;;;;;;10.68;4.28;;;;;;;;;;5031103;28;20053;-80
2022/01/02 11:51:07;;;;;;;11.20;4.10;;;;;;;;;;5042534;28;20129;-80
2022/01/02 11:53:36;;;;;;;7.15;3.83;;;;;;;;;;5043718;28;20368;-81
2022/01/02 11:56:02;;;;;;;11.73;4.78;;;;;;;;;;5026679;28;20033;-80
2022/01/02 11:58:46;;;;;;;8.77;4.35;;;;;;;;;;5024723;28;20047;-80
2022/01/02 12:01:32;;;;;;;11.82;4.22;;;;;;;;;;5058557;28;20120;-81
2022/01/02 12:03:58;;;;;;;8.75;4.22;;;;;;;;;;5058427;28;20041;-80
2022/01/02 12:06:32;;;;;;;10.32;4.47;;;;;;;;;;5024581;28;20083;-80
2022/01/02 12:08:58;;;;;;;9.40;4.65;;;;;;;;;;5025872;28;20503;-78
2022/01/02 12:11:30;;;;;;;9.18;4.38;;;;;;;;;;5044067;28;20044;-79
2022/01/02 12:14:03;;;;;;;10.27;4.57;;;;;;;;;;5059466;28;20124;-80
2022/01/02 12:16:39;;;;;;;8.77;4.07;;;;;;;;;;5028924;28;20037;-78
2022/01/02 12:19:05;;;;;;;12.25;4.40;;;;;;;;;;5047711;28;20033;-78
2022/01/02 12:21:32;;;;;;;12.38;4.78;;;;;;;;;;5044682;28;20124;-79
2022/01/02 12:23:58;;;;;;;11.23;4.50;;;;;;;;;;5036310;28;20037;-79
2022/01/02 12:26:34;;;;;;;12.90;4.32;;;;;;;;;;5074557;28;20052;-79
2022/01/02 12:29:05;;;;;;;11.20;4.72;;;;;;;;;;5039111;28;20045;-78
2022/01/02 12:31:32;;;;;;;11.27;4.50;;;;;;;;;;5067333;28;20045;-80
2022/01/02 12:34:06;;;;;;;13.80;4.72;;;;;;;;;;5025350;28;20044;-80
2022/01/02 12:36:32;;;;;;;13.52;4.10;;;;;;;;;;5039849;28;20039;-81
2022/01/02 12:38:59;;;;;;;12.43;4.13;;;;;;;;;;5040065;28;20111;-80
2022/01/02 12:41:29;;;;;;;8.98;3.95;;;;;;;;;;5027111;28;20033;-80
2022/01/02 12:43:55;;;;;;;11.13;4.38;;;;;;;;;;5051194;28;20033;-80
2022/01/02 12:46:40;;;;;;;16.27;3.88;;;;;;;;;;5028058;28;20041;-80
2022/01/02 12:49:28;;;;;;;11.30;3.88;;;;;;;;;;5059532;28;20053;-80
2022/01/02 12:51:55;;;;;;;12.52;4.05;;;;;;;;;;5033103;28;20047;-81
2022/01/02 12:54:23;;;;;;;12.07;4.43;;;;;;;;;;5025568;28;20059;-79
2022/01/02 12:56:50;;;;;;;11.68;3.95;;;;;;;;;;5042835;28;20045;-79
2022/01/02 12:59:17;;;;;;;12.10;3.78;;;;;;;;;;5056587;28;20070;-79
2022/01/02 13:01:52;;;;;;;8.95;3.97;;;;;;;;;;5054599;28;20047;-80
2022/01/02 13:04:18;;;;;;;12.38;3.90;;;;;;;;;;5059869;28;20045;-80
2022/01/02 13:06:47;;;;;;;15.38;4.25;;;;;;;;;;5025635;28;20037;-81
2022/01/02 13:09:23;;;;;;;13.27;4.22;;;;;;;;;;5042140;28;20037;-80
2022/01/02 13:11:49;;;;;;;9.52;3.35;;;;;;;;;;5027553;28;20045;-81
2022/01/02 13:14:29;;;;;;;10.23;3.92;;;;;;;;;;5049404;28;20531;-81
2022/01/02 13:16:55;;;;;;;13.48;4.50;;;;;;;;;;5034635;28;20041;-80
2022/01/02 13:19:21;;;;;;;15.30;3.58;;;;;;;;;;5036965;28;20041;-79
2022/01/02 13:21:47;;;;;;;8.15;3.65;;;;;;;;;;5039348;28;20037;-78
2022/01/02 13:24:29;;;;;;;9.45;3.42;;;;;;;;;;5055974;28;20049;-78
2022/01/02 13:26:58;;;;;;;8.95;3.65;;;;;;;;;;5055082;28;20045;-77
2022/01/02 13:29:24;;;;;;;9.18;3.72;;;;;;;;;;5034118;28;20037;-78
2022/01/02 13:31:51;;;;;;;11.80;3.22;;;;;;;;;;5027369;28;20036;-79
2022/01/02 13:34:24;;;;;;;8.65;3.50;;;;;;;;;;5025032;28;20045;-79
2022/01/02 13:36:56;;;;;;;8.95;3.20;;;;;;;;;;5042379;28;20076;-79
2022/01/02 13:39:37;;;;;;;12.10;3.55;;;;;;;;;;5044591;28;20114;-79
2022/01/02 13:42:03;;;;;;;9.82;3.38;;;;;;;;;;5042935;28;20037;-79
2022/01/02 13:44:35;;;;;;;9.07;3.30;;;;;;;;;;5041042;28;20040;-81
2022/01/02 13:47:02;;;;;;;12.15;3.55;;;;;;;;;;5061809;28;20063;-80
2022/01/02 13:49:56;;;;;;;9.82;3.40;;;;;;;;;;5044111;28;20476;-80
2022/01/02 13:52:22;;;;;;;10.63;3.72;;;;;;;;;;5046059;28;20043;-78
2022/01/02 13:54:48;;;;;;;12.25;3.45;;;;;;;;;;5064643;28;20361;-79
2022/01/02 13:57:15;;;;;;;11.70;3.70;;;;;;;;;;5046178;28;20092;-78
2022/01/02 13:59:41;;;;;;;9.32;3.42;;;;;;;;;;5029773;28;20044;-78
2022/01/02 14:02:07;;;;;;;7.40;3.50;;;;;;;;;;5046593;28;20080;-78
2022/01/02 14:04:51;;;;;;;11.20;3.58;;;;;;;;;;5046116;28;20119;-79
2022/01/02 14:07:17;;;;;;;10.88;3.22;;;;;;;;;;5028137;28;20396;-79
2022/01/02 14:09:51;;;;;;;8.32;3.50;;;;;;;;;;5050353;28;20041;-77
2022/01/02 14:12:20;;;;;;;9.75;3.33;;;;;;;;;;5050583;28;20047;-78
2022/01/02 14:14:49;;;;;;;6.53;3.00;;;;;;;;;;5030782;28;20456;-81
2022/01/02 14:17:30;;;;;;;11.25;2.95;;;;;;;;;;5027861;28;20055;-79
2022/01/02 14:19:56;;;;;;;11.57;3.25;;;;;;;;;;5029213;28;20033;-80
2022/01/02 14:22:23;;;;;;;13.30;3.70;;;;;;;;;;5060290;28;20093;-81
2022/01/02 14:24:49;;;;;;;9.57;3.53;;;;;;;;;;5027540;28;20045;-78
2022/01/02 14:27:16;;;;;;;12.82;3.30;;;;;;;;;;5046228;28;20037;-78
2022/01/02 14:29:42;;;;;;;10.52;3.55;;;;;;;;;;5064213;28;20045;-78
2022/01/02 14:32:08;;;;;;;11.00;3.67;;;;;;;;;;5047879;28;20037;-76
2022/01/02 14:34:36;;;;;;;9.60;3.30;;;;;;;;;;5031843;28;20124;-76
2022/01/02 14:37:02;;;;;;;10.13;3.30;;;;;;;;;;5045834;28;20142;-78
2022/01/02 14:39:28;;;;;;;11.07;3.33;;;;;;;;;;5027044;28;20036;-78
2022/01/02 14:41:54;;;;;;;7.78;3.17;;;;;;;;;;5044288;28;20363;-78
2022/01/02 14:44:20;;;;;;;11.68;3.45;;;;;;;;;;5044791;28;20076;-78
2022/01/02 14:46:47;;;;;;;8.13;3.13;;;;;;;;;;5029298;28;20037;-80